Time;durP1;ratioP1;P1;durP2;ratioP2;P2;SDS_P1;SDS_P2;PMS_P1;PMS_P2;Temp;Humidity;BMP_temperature;BMP_pressure;BME280_temperature;BME280_humidity;BME280_pressure;Samples;Min_cycle;Max_cycle;Signal;HPM_P1;HPM_P2
2024/04/26 00:00:51;;;;;;;6.57;4.10;;;;;;;7.21;59.07;98886.78;4478879;26;20217;-71
2024/04/26 00:02:51;;;;;;;6.63;3.38;;;;;;;7.24;58.88;98881.16;4479231;26;20233;-70
2024/04/26 00:04:53;;;;;;;6.18;3.20;;;;;;;7.27;58.80;98878.22;4478661;26;20493;-70
2024/04/26 00:06:53;;;;;;;5.95;3.45;;;;;;;7.27;58.51;98875.56;4479017;26;20007;-70
2024/04/26 00:08:54;;;;;;;6.10;3.45;;;;;;;7.26;58.61;98881.00;4479065;26;20014;-70
2024/04/26 00:10:54;;;;;;;8.07;3.20;;;;;;;7.28;58.54;98879.84;4479062;26;19996;-71
2024/04/26 00:12:55;;;;;;;6.05;3.17;;;;;;;7.29;58.34;98873.56;4478887;26;20010;-71
2024/04/26 00:14:55;;;;;;;6.18;3.40;;;;;;;7.26;58.34;98865.03;4479169;26;19995;-71
2024/04/26 00:16:56;;;;;;;5.53;3.40;;;;;;;7.33;58.22;98872.28;4479150;26;19991;-70
2024/04/26 00:18:56;;;;;;;7.60;3.43;;;;;;;7.20;58.62;98868.31;4478773;26;19996;-70
2024/04/26 00:21:00;;;;;;;8.07;3.97;;;;;;;7.00;59.02;98873.78;4478860;26;20721;-70
2024/04/26 00:23:01;;;;;;;7.28;4.07;;;;;;;7.06;58.81;98864.38;4477380;26;20003;-70
2024/04/26 00:25:01;;;;;;;7.53;3.97;;;;;;;6.89;59.25;98866.00;4479225;26;20003;-70
2024/04/26 00:27:03;;;;;;;8.57;3.95;;;;;;;6.94;59.14;98864.59;4483706;26;20615;-70
2024/04/26 00:29:05;;;;;;;11.95;4.30;;;;;;;6.86;59.11;98862.66;4493837;26;20057;-72
2024/04/26 00:31:05;;;;;;;7.70;4.70;;;;;;;6.92;58.88;98868.38;4483904;26;20536;-71
2024/04/26 00:33:07;;;;;;;6.80;3.80;;;;;;;6.90;58.70;98879.13;4451650;26;20000;-71
2024/04/26 00:35:08;;;;;;;7.85;4.38;;;;;;;6.97;58.63;98872.25;4488605;26;20019;-70
2024/04/26 00:37:08;;;;;;;8.07;3.70;;;;;;;6.93;58.79;98875.38;4488962;26;20003;-70
2024/04/26 00:39:09;;;;;;;9.20;4.50;;;;;;;6.81;58.81;98869.41;4489580;26;20000;-71
2024/04/26 00:41:09;;;;;;;6.57;4.00;;;;;;;6.86;58.77;98872.47;4488902;26;20300;-71
2024/04/26 00:43:10;;;;;;;7.93;4.60;;;;;;;6.89;58.62;98860.69;4487606;26;20261;-70
2024/04/26 00:45:10;;;;;;;6.18;3.30;;;;;;;6.97;58.22;98864.28;4485329;26;20237;-70
2024/04/26 00:47:11;;;;;;;6.57;3.78;;;;;;;6.86;58.42;98860.00;4481457;26;20004;-73
2024/04/26 00:49:13;;;;;;;10.02;4.63;;;;;;;6.83;58.47;98860.34;4492447;26;19999;-70
2024/04/26 00:51:13;;;;;;;6.35;3.80;;;;;;;6.79;58.59;98858.94;4491888;26;20007;-71
2024/04/26 00:53:15;;;;;;;5.93;3.42;;;;;;;6.85;58.74;98860.16;4458187;26;20004;-70
2024/04/26 00:55:16;;;;;;;7.72;4.60;;;;;;;6.79;58.75;98866.09;4487608;26;20010;-70
2024/04/26 00:57:18;;;;;;;8.00;3.67;;;;;;;6.85;58.64;98860.16;4479489;26;19999;-71
2024/04/26 00:59:19;;;;;;;7.88;4.05;;;;;;;6.79;58.64;98858.13;4476638;26;20011;-72
2024/04/26 01:01:20;;;;;;;9.73;4.68;;;;;;;6.70;58.71;98863.34;4479269;26;20433;-70
2024/04/26 01:03:20;;;;;;;;;;;;;;;6.71;58.99;98866.81;4479372;26;19999;-70
2024/04/26 01:05:22;;;;;;;8.80;4.53;;;;;;;6.61;59.02;98866.91;4476206;26;19962;-70
2024/04/26 01:07:22;;;;;;;9.07;4.40;;;;;;;6.52;59.26;98870.41;4478608;26;20506;-69
2024/04/26 01:09:24;;;;;;;7.07;4.07;;;;;;;6.63;58.89;98869.41;4478418;26;20057;-70
2024/04/26 01:11:25;;;;;;;9.60;4.30;;;;;;;6.62;58.82;98870.38;4478233;26;20244;-70
2024/04/26 01:13:25;;;;;;;7.47;4.13;;;;;;;6.69;59.13;98863.47;4477757;26;20020;-70
2024/04/26 01:15:25;;;;;;;9.80;4.10;;;;;;;6.70;58.74;98866.00;4447689;26;20412;-70
2024/04/26 01:17:26;;;;;;;7.03;3.60;;;;;;;6.67;58.58;98863.63;4479746;26;20233;-70
2024/04/26 01:19:26;;;;;;;7.87;4.10;;;;;;;6.72;58.61;98864.00;4479033;26;20225;-70
2024/04/26 01:21:28;;;;;;;7.38;4.32;;;;;;;6.79;58.63;98861.59;4477858;26;20412;-70
2024/04/26 01:23:32;;;;;;;8.27;3.97;;;;;;;6.77;58.47;98866.22;4477392;26;20034;-70
2024/04/26 01:25:32;;;;;;;6.90;3.63;;;;;;;6.85;58.21;98860.16;4447342;26;20512;-70
2024/04/26 01:27:33;;;;;;;7.45;3.70;;;;;;;6.93;58.18;98867.41;4478914;26;19995;-70
2024/04/26 01:29:33;;;;;;;6.35;3.28;;;;;;;6.97;58.00;98858.97;4476745;26;20010;-70
2024/04/26 01:31:34;;;;;;;5.22;3.22;;;;;;;6.97;58.05;98864.28;4479445;26;20370;-71
2024/04/26 01:33:34;;;;;;;8.48;4.15;;;;;;;6.85;58.18;98861.00;4477432;26;20062;-70
2024/04/26 01:35:35;;;;;;;6.63;3.80;;;;;;;6.74;58.55;98847.09;4474651;26;20461;-70
2024/04/26 01:37:35;;;;;;;9.65;3.80;;;;;;;6.58;59.10;98842.44;4477782;26;20007;-69
2024/04/26 01:39:36;;;;;;;8.90;4.22;;;;;;;6.62;59.09;98833.19;4476319;26;20006;-70
2024/04/26 01:41:36;;;;;;;6.30;3.35;;;;;;;6.78;58.68;98835.19;4488163;26;20791;-70
2024/04/26 01:43:37;;;;;;;6.28;3.38;;;;;;;6.86;58.73;98833.44;4486176;26;20032;-70
2024/04/26 01:45:37;;;;;;;6.78;3.67;;;;;;;6.90;58.78;98847.25;4477731;26;20010;-70
2024/04/26 01:47:38;;;;;;;6.03;3.22;;;;;;;6.88;58.71;98843.94;4446108;26;19997;-70
2024/04/26 01:49:38;;;;;;;9.77;4.00;;;;;;;6.82;58.75;98845.38;4466960;26;20084;-70
2024/04/26 01:51:39;;;;;;;7.07;3.50;;;;;;;6.80;59.16;98859.78;4458396;26;20491;-71
2024/04/26 01:53:39;;;;;;;8.03;4.23;;;;;;;6.85;59.21;98860.16;4448187;26;20004;-69
2024/04/26 01:55:39;;;;;;;6.60;3.90;;;;;;;6.91;59.20;98858.75;4478457;26;20265;-70
2024/04/26 01:57:41;;;;;;;7.40;4.20;;;;;;;6.85;59.65;98855.69;4445910;26;20272;-71
2024/04/26 01:59:42;;;;;;;7.25;4.20;;;;;;;6.89;59.76;98866.88;4454477;26;20002;-69
2024/04/26 02:01:43;;;;;;;10.80;4.28;;;;;;;6.87;59.72;98864.34;4457086;26;19992;-70
2024/04/26 02:03:44;;;;;;;12.93;4.78;;;;;;;6.87;59.91;98861.69;4447569;26;20326;-69
2024/04/26 02:05:45;;;;;;;10.02;5.32;;;;;;;6.82;60.28;98861.31;4451433;26;20011;-70
2024/04/26 02:07:45;;;;;;;7.55;4.28;;;;;;;6.80;60.36;98857.13;4462648;26;20218;-70
2024/04/26 02:09:45;;;;;;;8.70;4.43;;;;;;;6.74;60.49;98852.41;4446544;26;20041;-70
2024/04/26 02:11:46;;;;;;;7.45;4.38;;;;;;;6.70;60.52;98858.03;4477657;26;20031;-70
2024/04/26 02:13:46;;;;;;;7.90;4.47;;;;;;;6.72;60.75;98856.03;4477090;26;20061;-71
2024/04/26 02:15:47;;;;;;;8.00;4.63;;;;;;;6.71;60.70;98859.69;4476883;26;20320;-69
2024/04/26 02:17:47;;;;;;;8.35;4.57;;;;;;;6.62;60.88;98863.22;4477708;26;20281;-70
2024/04/26 02:19:47;;;;;;;10.93;4.93;;;;;;;6.61;61.19;98861.59;4477257;26;19995;-70
2024/04/26 02:21:48;;;;;;;7.67;4.43;;;;;;;6.64;60.86;98857.78;4445910;26;20274;-70
2024/04/26 02:23:49;;;;;;;9.13;4.63;;;;;;;6.64;60.95;98853.31;4446072;26;20035;-69
2024/04/26 02:25:50;;;;;;;10.05;4.55;;;;;;;6.58;60.99;98859.22;4477691;26;20261;-70
2024/04/26 02:27:50;;;;;;;9.98;4.93;;;;;;;6.56;60.57;98854.03;4474644;26;20465;-69
2024/04/26 02:29:52;;;;;;;8.55;4.63;;;;;;;6.61;60.77;98855.41;4477419;26;20407;-70
2024/04/26 02:31:52;;;;;;;7.20;4.10;;;;;;;6.69;60.75;98844.88;4477270;26;19996;-70
2024/04/26 02:33:53;;;;;;;9.57;4.40;;;;;;;6.55;60.91;98843.56;4457236;26;20068;-69
2024/04/26 02:35:54;;;;;;;9.25;4.57;;;;;;;6.52;61.07;98841.19;4446380;26;19996;-70
2024/04/26 02:37:54;;;;;;;7.72;4.90;;;;;;;6.39;61.34;98845.06;4447459;26;20063;-70
2024/04/26 02:39:55;;;;;;;10.18;5.95;;;;;;;6.39;61.31;98839.75;4448455;26;20000;-70
2024/04/26 02:41:55;;;;;;;11.93;5.88;;;;;;;6.29;61.57;98833.66;4417189;26;20084;-70
2024/04/26 02:43:56;;;;;;;8.75;5.35;;;;;;;6.48;61.19;98847.81;4466290;26;20031;-70
2024/04/26 02:45:56;;;;;;;10.23;4.60;;;;;;;6.53;61.20;98845.53;4478127;26;20011;-70
2024/04/26 02:47:56;;;;;;;7.63;4.23;;;;;;;6.62;60.73;98847.28;4479996;26;19995;-69
2024/04/26 02:49:57;;;;;;;10.70;4.57;;;;;;;6.44;61.16;98839.31;4480080;26;20600;-70
2024/04/26 02:51:57;;;;;;;8.68;4.72;;;;;;;6.47;61.00;98846.13;4480068;26;20442;-70
2024/04/26 02:53:58;;;;;;;9.30;4.75;;;;;;;6.37;61.14;98844.38;4479426;26;20451;-70
2024/04/26 02:55:58;;;;;;;10.82;5.70;;;;;;;6.26;61.41;98847.19;4479585;26;20005;-70
2024/04/26 02:57:59;;;;;;;8.57;4.73;;;;;;;6.40;61.20;98841.44;4477760;26;20031;-70
2024/04/26 02:59:59;;;;;;;11.10;5.55;;;;;;;6.38;61.32;98846.03;4479819;26;20340;-70
2024/04/26 03:02:00;;;;;;;14.30;6.63;;;;;;;6.40;61.33;98828.16;4479271;26;20540;-70
2024/04/26 03:04:00;;;;;;;12.97;6.93;;;;;;;6.26;62.18;98839.25;4479149;26;20007;-70
2024/04/26 03:06:05;;;;;;;12.98;6.53;;;;;;;6.37;62.22;98836.41;4480932;26;20509;-70
2024/04/26 03:08:06;;;;;;;8.52;5.05;;;;;;;6.40;61.84;98836.13;4479605;26;19999;-70
2024/04/26 03:10:06;;;;;;;7.88;4.85;;;;;;;6.39;62.00;98834.44;4479122;26;20038;-70
2024/04/26 03:12:07;;;;;;;9.68;5.55;;;;;;;6.30;62.09;98829.16;4479548;26;20006;-70
2024/04/26 03:14:08;;;;;;;10.90;6.05;;;;;;;5.96;63.36;98816.44;4478902;26;19996;-70
2024/04/26 03:16:08;;;;;;;19.13;6.65;;;;;;;6.01;63.16;98812.41;4479677;26;20003;-71
2024/04/26 03:18:09;;;;;;;11.25;5.40;;;;;;;6.03;63.09;98807.78;4479581;26;19992;-70
2024/04/26 03:20:09;;;;;;;9.05;4.82;;;;;;;6.68;61.23;98796.25;4479402;26;19999;-69
2024/04/26 03:22:10;;;;;;;9.85;4.70;;;;;;;6.75;60.74;98800.97;4478981;26;20027;-70
2024/04/26 03:24:14;;;;;;;8.60;5.22;;;;;;;6.73;60.88;98825.03;4479313;26;20070;-70
2024/04/26 03:26:15;;;;;;;11.40;5.93;;;;;;;6.69;61.14;98823.63;4448466;26;20027;-70
2024/04/26 03:28:16;;;;;;;12.13;6.05;;;;;;;6.81;60.80;98817.13;4453817;26;20402;-70
2024/04/26 03:30:16;;;;;;;13.45;6.00;;;;;;;6.73;60.87;98817.06;4486733;26;20003;-72
2024/04/26 03:32:17;;;;;;;11.02;6.03;;;;;;;6.73;60.78;98819.72;4492437;26;20102;-70
2024/04/26 03:34:18;;;;;;;9.80;5.25;;;;;;;6.77;61.02;98813.09;4460445;26;20388;-74
2024/04/26 03:36:19;;;;;;;10.55;6.38;;;;;;;6.82;60.86;98815.31;4487860;26;19996;-70
2024/04/26 03:38:22;;;;;;;8.98;4.85;;;;;;;6.86;60.63;98808.72;4486759;26;20017;-72
2024/04/26 03:40:22;;;;;;;10.15;5.40;;;;;;;6.83;60.63;98816.97;4487864;26;20015;-70
2024/04/26 03:42:23;;;;;;;10.68;5.40;;;;;;;6.89;60.57;98808.41;4495407;26;20003;-70
2024/04/26 03:44:23;;;;;;;9.47;5.00;;;;;;;6.84;60.74;98811.53;4462461;26;20004;-70
2024/04/26 03:46:24;;;;;;;10.18;5.55;;;;;;;6.78;60.85;98800.66;4461067;26;20479;-70
2024/04/26 03:48:24;;;;;;;10.88;5.35;;;;;;;6.82;60.84;98818.81;4483039;26;20073;-70
2024/04/26 03:50:25;;;;;;;8.65;4.60;;;;;;;6.84;60.64;98808.88;4479228;26;20308;-70
2024/04/26 03:52:26;;;;;;;11.63;5.47;;;;;;;6.79;61.10;98808.47;4446532;26;20861;-70
2024/04/26 03:54:26;;;;;;;;;;;;;;;7.03;61.77;98804.41;4479600;26;20018;-70
2024/04/26 03:56:27;;;;;;;10.07;4.93;;;;;;;6.68;61.06;98812.19;4478095;26;19965;-70
2024/04/26 03:58:27;;;;;;;12.82;5.57;;;;;;;6.71;61.10;98811.88;4477385;26;20071;-71
2024/04/26 04:00:32;;;;;;;10.83;5.10;;;;;;;6.66;61.18;98797.41;4447745;26;20069;-70
2024/04/26 04:02:33;;;;;;;8.90;4.60;;;;;;;6.67;61.12;98805.22;4479010;26;20225;-69
2024/04/26 04:04:34;;;;;;;10.52;6.18;;;;;;;6.47;61.48;98801.00;4447383;26;19992;-71
2024/04/26 04:06:35;;;;;;;;;;;;;;;6.51;62.67;98808.50;4478134;26;20335;-70
2024/04/26 04:08:36;;;;;;;16.42;6.47;;;;;;;6.27;61.91;98802.94;4479445;26;20152;-70
2024/04/26 04:10:36;;;;;;;12.50;5.97;;;;;;;6.34;61.99;98807.47;4478739;26;20010;-70
2024/04/26 04:12:37;;;;;;;17.17;7.13;;;;;;;6.45;61.67;98810.91;4475520;26;19995;-70
2024/04/26 04:14:37;;;;;;;11.23;5.60;;;;;;;6.54;61.56;98807.38;4477853;26;20474;-71
2024/04/26 04:16:38;;;;;;;11.33;5.83;;;;;;;6.60;61.39;98817.41;4477974;26;20273;-71
2024/04/26 04:18:38;;;;;;;11.40;4.63;;;;;;;6.59;61.34;98812.25;4463734;26;20457;-70
2024/04/26 04:20:39;;;;;;;9.27;4.43;;;;;;;6.51;61.38;98810.34;4478313;26;20003;-70
2024/04/26 04:22:39;;;;;;;9.93;4.93;;;;;;;6.57;61.17;98809.75;4478210;26;19995;-70
2024/04/26 04:24:39;;;;;;;9.95;4.40;;;;;;;6.56;60.93;98808.88;4477758;26;20069;-70
2024/04/26 04:26:40;;;;;;;7.97;4.47;;;;;;;6.60;61.04;98814.75;4478010;26;19995;-70
2024/04/26 04:28:42;;;;;;;9.13;4.57;;;;;;;6.62;60.95;98818.09;4445109;26;20297;-70
2024/04/26 04:30:42;;;;;;;10.00;5.93;;;;;;;6.40;61.47;98819.34;4477654;26;20064;-70
2024/04/26 04:32:43;;;;;;;11.63;6.50;;;;;;;6.31;61.47;98818.41;4478280;26;20484;-71
2024/04/26 04:34:43;;;;;;;16.80;7.93;;;;;;;5.85;63.05;98820.13;4477917;26;19996;-70
2024/04/26 04:36:43;;;;;;;16.73;7.37;;;;;;;5.81;63.43;98818.72;4478328;26;20313;-70
2024/04/26 04:38:44;;;;;;;20.52;8.70;;;;;;;6.02;62.62;98819.38;4478171;26;19995;-69
2024/04/26 04:40:44;;;;;;;19.33;8.97;;;;;;;6.12;62.44;98821.16;4478278;26;20016;-69
2024/04/26 04:42:45;;;;;;;18.10;8.73;;;;;;;6.14;62.39;98821.84;4477694;26;20217;-70
2024/04/26 04:44:45;;;;;;;16.98;8.80;;;;;;;6.20;62.20;98822.09;4477537;26;20010;-70
2024/04/26 04:46:45;;;;;;;16.05;8.25;;;;;;;6.26;61.93;98810.03;4475589;26;19995;-70
2024/04/26 04:48:46;;;;;;;18.38;7.97;;;;;;;6.42;61.71;98806.75;4476760;26;20043;-70
2024/04/26 04:50:47;;;;;;;17.13;8.20;;;;;;;6.52;61.59;98806.69;4477870;26;20055;-69
2024/04/26 04:52:47;;;;;;;18.40;8.27;;;;;;;6.55;61.43;98804.59;4477697;26;20330;-71
2024/04/26 04:54:48;;;;;;;12.33;7.00;;;;;;;6.71;61.25;98801.25;4477576;26;19992;-69
2024/04/26 04:56:48;;;;;;;10.48;6.15;;;;;;;6.94;60.78;98800.00;4477984;26;20301;-70
2024/04/26 04:58:49;;;;;;;16.60;9.37;;;;;;;6.80;61.11;98804.00;4486116;26;20001;-70
2024/04/26 05:00:51;;;;;;;17.70;8.57;;;;;;;6.50;61.71;98798.06;4483365;26;20697;-70
2024/04/26 05:02:52;;;;;;;17.95;9.40;;;;;;;6.55;61.80;98801.94;4485657;26;20266;-70
2024/04/26 05:04:52;;;;;;;15.40;7.20;;;;;;;6.65;61.40;98812.47;4486232;26;20031;-70
2024/04/26 05:06:53;;;;;;;22.83;7.83;;;;;;;6.71;61.09;98795.13;4493056;26;20016;-70
2024/04/26 05:08:53;;;;;;;11.70;6.70;;;;;;;6.83;60.96;98803.69;4492586;26;20261;-71
2024/04/26 05:10:55;;;;;;;13.30;7.03;;;;;;;7.04;60.30;98800.72;4479830;26;20401;-69
2024/04/26 05:12:56;;;;;;;13.98;8.38;;;;;;;7.02;60.28;98803.53;4477735;26;20010;-69
2024/04/26 05:14:56;;;;;;;12.48;5.95;;;;;;;7.08;60.30;98798.63;4478838;26;19992;-69
2024/04/26 05:16:57;;;;;;;12.55;6.85;;;;;;;7.07;60.24;98800.44;4446792;26;20074;-70
2024/04/26 05:18:58;;;;;;;12.60;6.43;;;;;;;7.12;60.14;98807.94;4477331;26;19996;-70
2024/04/26 05:20:59;;;;;;;12.45;6.47;;;;;;;7.10;59.92;98804.59;4477948;26;20568;-69
2024/04/26 05:22:59;;;;;;;13.13;6.93;;;;;;;7.27;59.65;98806.44;4477052;26;19995;-70
2024/04/26 05:25:00;;;;;;;15.33;6.73;;;;;;;7.48;58.86;98798.09;4447079;26;20230;-70
2024/04/26 05:27:00;;;;;;;12.02;5.30;;;;;;;7.52;58.91;98798.63;4477272;26;19996;-69
2024/04/26 05:29:02;;;;;;;16.67;7.57;;;;;;;7.37;59.06;98802.84;4475973;26;20015;-70
2024/04/26 05:31:02;;;;;;;14.48;8.10;;;;;;;7.32;58.90;98808.63;4477399;26;20002;-70
2024/04/26 05:33:03;;;;;;;12.77;7.40;;;;;;;7.47;58.80;98809.72;4476582;26;19996;-70
2024/04/26 05:35:04;;;;;;;9.98;6.00;;;;;;;7.48;58.84;98814.06;4477069;26;20115;-70
2024/04/26 05:37:05;;;;;;;18.73;7.78;;;;;;;7.26;59.70;98810.06;4477276;26;20409;-69
2024/04/26 05:39:05;;;;;;;13.25;7.75;;;;;;;7.10;59.80;98815.22;4445562;26;20032;-69
2024/04/26 05:41:06;;;;;;;25.48;9.18;;;;;;;7.11;59.95;98808.94;4476687;26;20439;-69
2024/04/26 05:43:06;;;;;;;12.70;7.90;;;;;;;6.44;61.69;98820.72;4476955;26;19996;-70
2024/04/26 05:45:07;;;;;;;14.40;7.67;;;;;;;6.29;62.12;98820.38;4477566;26;20006;-70
2024/04/26 05:47:07;;;;;;;11.70;6.07;;;;;;;6.34;61.99;98820.75;4474775;26;19992;-70
2024/04/26 05:49:07;;;;;;;12.93;6.03;;;;;;;6.50;61.88;98814.81;4476647;26;20055;-70
2024/04/26 05:51:13;;;;;;;18.90;8.30;;;;;;;6.52;61.79;98817.31;4476874;26;20744;-71
2024/04/26 05:53:13;;;;;;;14.48;6.40;;;;;;;6.62;61.52;98817.25;4468672;26;20011;-71
2024/04/26 05:55:14;;;;;;;9.73;6.10;;;;;;;6.68;61.44;98814.00;4477324;26;19992;-70
2024/04/26 05:57:14;;;;;;;9.63;5.20;;;;;;;6.71;61.24;98811.88;4477043;26;20090;-71
2024/04/26 05:59:14;;;;;;;9.57;6.10;;;;;;;6.85;61.01;98807.84;4445173;26;20456;-70
2024/04/26 06:01:15;;;;;;;11.07;5.33;;;;;;;7.00;61.03;98808.16;4476889;26;20221;-70
2024/04/26 06:03:15;;;;;;;10.63;5.82;;;;;;;7.03;60.63;98820.34;4445487;26;20058;-71
2024/04/26 06:05:16;;;;;;;12.30;5.82;;;;;;;7.08;60.61;98811.91;4477179;26;20296;-71
2024/04/26 06:07:16;;;;;;;8.70;5.37;;;;;;;7.14;60.41;98816.59;4477202;26;20060;-70
2024/04/26 06:09:19;;;;;;;14.10;6.50;;;;;;;7.16;60.54;98814.63;4477607;26;20300;-71
2024/04/26 06:11:20;;;;;;;19.50;6.07;;;;;;;7.21;60.42;98812.34;4476668;26;20221;-70
2024/04/26 06:13:20;;;;;;;11.07;5.88;;;;;;;7.10;60.51;98809.91;4475834;26;20401;-70
2024/04/26 06:15:20;;;;;;;15.23;5.47;;;;;;;7.05;60.08;98817.53;4476839;26;20393;-70
2024/04/26 06:17:21;;;;;;;14.07;6.43;;;;;;;6.90;60.71;98823.34;4476761;26;20281;-70
2024/04/26 06:19:21;;;;;;;12.50;5.10;;;;;;;6.90;60.48;98827.84;4476809;26;20003;-70
2024/04/26 06:21:22;;;;;;;12.70;5.82;;;;;;;6.84;60.62;98821.31;4446507;26;20751;-70
2024/04/26 06:23:22;;;;;;;10.98;4.95;;;;;;;6.91;60.21;98817.06;4478850;26;20015;-70
2024/04/26 06:25:25;;;;;;;9.90;4.53;;;;;;;6.99;59.94;98816.31;4479869;26;20048;-70
2024/04/26 06:27:25;;;;;;;11.55;4.63;;;;;;;7.11;59.59;98812.44;4479722;26;20027;-70
2024/04/26 06:29:26;;;;;;;11.65;4.38;;;;;;;7.20;59.44;98808.00;4479986;26;20073;-69
2024/04/26 06:31:26;;;;;;;7.73;4.67;;;;;;;7.41;58.78;98820.16;4478817;26;20007;-71
2024/04/26 06:33:27;;;;;;;12.53;6.53;;;;;;;7.52;58.91;98821.72;4483187;26;20000;-70
2024/04/26 06:35:27;;;;;;;11.25;4.85;;;;;;;7.75;58.73;98816.72;4490526;26;20694;-70
2024/04/26 06:37:27;;;;;;;8.98;5.30;;;;;;;7.88;58.51;98814.47;4489087;26;20007;-70
2024/04/26 06:39:28;;;;;;;9.43;5.30;;;;;;;7.95;58.22;98818.16;4458346;26;20538;-70
2024/04/26 06:41:29;;;;;;;10.90;5.20;;;;;;;8.14;57.96;98818.94;4479847;26;20014;-70
2024/04/26 06:43:29;;;;;;;9.63;4.53;;;;;;;8.35;57.44;98826.53;4479444;26;20217;-70
2024/04/26 06:45:30;;;;;;;9.10;4.68;;;;;;;8.39;57.34;98811.88;4480100;26;20011;-71
2024/04/26 06:47:31;;;;;;;8.57;4.03;;;;;;;8.55;56.79;98810.28;4478846;26;20798;-70
2024/04/26 06:49:31;;;;;;;7.45;4.20;;;;;;;8.60;56.93;98817.81;4451150;26;19996;-73
2024/04/26 06:51:32;;;;;;;7.97;4.38;;;;;;;8.67;56.90;98818.84;4488857;26;19999;-72
2024/04/26 06:53:32;;;;;;;9.18;4.25;;;;;;;8.79;56.51;98817.50;4491821;26;19996;-72
2024/04/26 06:55:33;;;;;;;12.90;4.93;;;;;;;8.90;56.17;98813.72;4459744;26;19992;-73
2024/04/26 06:57:34;;;;;;;17.05;5.72;;;;;;;8.70;56.28;98811.34;4491095;26;20828;-71
2024/04/26 06:59:34;;;;;;;12.25;5.70;;;;;;;8.83;56.32;98829.53;4489184;26;20424;-71
2024/04/26 07:01:35;;;;;;;13.52;5.18;;;;;;;8.92;56.31;98822.41;4483525;26;20007;-70
2024/04/26 07:03:41;;;;;;;9.27;4.72;;;;;;;9.06;55.71;98818.25;4478708;26;19996;-71
2024/04/26 07:05:42;;;;;;;8.63;4.32;;;;;;;8.93;56.26;98829.38;4479529;26;20000;-70
2024/04/26 07:07:46;;;;;;;9.90;4.88;;;;;;;8.72;56.39;98832.50;4479497;26;20376;-70
2024/04/26 07:09:47;;;;;;;11.00;4.43;;;;;;;8.78;56.40;98829.19;4478975;26;19995;-71
2024/04/26 07:11:47;;;;;;;10.27;4.18;;;;;;;9.08;56.07;98832.22;4479190;26;20467;-71
2024/04/26 07:13:50;;;;;;;13.30;4.33;;;;;;;9.32;55.49;98826.06;4447969;26;20542;-71
2024/04/26 07:15:51;;;;;;;7.03;4.47;;;;;;;9.61;54.91;98816.72;4479669;26;20318;-71
2024/04/26 07:17:51;;;;;;;8.75;4.00;;;;;;;9.65;54.97;98825.22;4448349;26;20012;-71
2024/04/26 07:19:51;;;;;;;17.87;4.70;;;;;;;9.68;54.21;98809.69;4479517;26;20003;-70
2024/04/26 07:21:57;;;;;;;11.13;4.93;;;;;;;9.85;53.98;98815.03;4448045;26;20238;-71
2024/04/26 07:23:58;;;;;;;15.43;5.30;;;;;;;10.13;53.44;98810.09;4478484;26;20014;-70
2024/04/26 07:25:58;;;;;;;8.95;4.25;;;;;;;10.21;53.49;98809.25;4479298;26;19999;-71
2024/04/26 07:27:58;;;;;;;7.60;3.67;;;;;;;10.33;52.99;98807.03;4448363;26;20019;-71
2024/04/26 07:29:59;;;;;;;7.82;4.03;;;;;;;10.39;52.52;98813.53;4478981;26;20233;-70
2024/04/26 07:31:59;;;;;;;11.10;3.63;;;;;;;10.48;51.68;98819.69;4479017;26;20010;-70
2024/04/26 07:34:00;;;;;;;9.57;3.22;;;;;;;10.70;50.80;98816.22;4478184;26;20028;-70
2024/04/26 07:36:00;;;;;;;9.38;3.10;;;;;;;10.97;50.14;98823.94;4478710;26;20000;-70
2024/04/26 07:38:01;;;;;;;9.82;2.95;;;;;;;11.18;49.28;98816.09;4476952;26;19999;-71
2024/04/26 07:40:01;;;;;;;7.45;2.80;;;;;;;11.32;48.62;98818.97;4478540;26;19995;-71
2024/04/26 07:42:04;;;;;;;6.18;2.85;;;;;;;11.36;48.05;98813.09;4478935;26;20546;-71
2024/04/26 07:44:05;;;;;;;7.85;2.10;;;;;;;11.33;47.30;98812.63;4478652;26;20000;-70
2024/04/26 07:46:06;;;;;;;6.47;2.78;;;;;;;11.49;46.65;98809.81;4478193;26;20015;-70
2024/04/26 07:48:07;;;;;;;5.75;1.95;;;;;;;11.48;46.48;98812.66;4450670;26;20019;-71
2024/04/26 07:50:08;;;;;;;5.95;2.63;;;;;;;11.62;46.05;98816.38;4482955;26;20000;-70
2024/04/26 07:52:08;;;;;;;4.63;1.95;;;;;;;12.01;45.54;98804.66;4446921;26;20023;-71
2024/04/26 07:54:08;;;;;;;7.13;2.63;;;;;;;11.63;45.94;98810.84;4477696;26;20019;-71
2024/04/26 07:56:09;;;;;;;7.10;2.05;;;;;;;11.76;45.13;98799.50;4476453;26;20352;-71
2024/04/26 07:58:09;;;;;;;5.80;1.98;;;;;;;12.16;45.00;98810.00;4478603;26;20004;-71
2024/04/26 08:00:10;;;;;;;5.13;2.33;;;;;;;12.24;44.50;98806.38;4477836;26;20407;-71
2024/04/26 08:02:10;;;;;;;7.05;2.22;;;;;;;12.32;44.53;98796.41;4477786;26;20000;-70
2024/04/26 08:04:13;;;;;;;4.80;2.10;;;;;;;12.38;44.54;98807.38;4477769;26;20018;-71
2024/04/26 08:06:15;;;;;;;8.63;2.67;;;;;;;12.24;44.60;98804.56;4484917;26;20045;-71
2024/04/26 08:08:16;;;;;;;9.55;2.33;;;;;;;12.47;44.86;98800.91;4491505;26;20003;-71
2024/04/26 08:10:17;;;;;;;5.60;2.40;;;;;;;12.79;44.05;98794.28;4477086;26;20082;-71
2024/04/26 08:12:17;;;;;;;6.55;2.83;;;;;;;12.74;44.00;98798.56;4477649;26;20006;-71
2024/04/26 08:14:17;;;;;;;5.57;2.25;;;;;;;13.15;43.37;98789.88;4477274;26;20525;-71
2024/04/26 08:16:18;;;;;;;6.43;2.42;;;;;;;13.44;42.85;98800.69;4446581;26;20003;-71
2024/04/26 08:18:18;;;;;;;7.75;2.88;;;;;;;13.36;42.96;98791.72;4477470;26;20073;-71
2024/04/26 08:20:19;;;;;;;7.53;2.38;;;;;;;13.88;42.29;98792.34;4478054;26;19996;-70
2024/04/26 08:22:19;;;;;;;6.85;2.95;;;;;;;13.85;42.26;98792.75;4477390;26;19999;-70
2024/04/26 08:24:19;;;;;;;11.98;3.08;;;;;;;13.54;42.48;98791.28;4478100;26;20014;-70
2024/04/26 08:26:20;;;;;;;6.20;2.88;;;;;;;13.81;42.93;98790.66;4478420;26;20004;-70
2024/04/26 08:28:21;;;;;;;6.10;2.55;;;;;;;13.62;43.18;98803.72;4479060;26;19999;-70
2024/04/26 08:30:24;;;;;;;4.75;2.25;;;;;;;13.98;42.58;98797.38;4478709;26;20003;-71
2024/04/26 08:32:26;;;;;;;6.95;3.55;;;;;;;14.45;42.08;98808.34;4478215;26;20443;-70
2024/04/26 08:34:26;;;;;;;5.07;3.03;;;;;;;14.71;41.73;98801.44;4446575;26;20018;-70
2024/04/26 08:36:27;;;;;;;6.20;2.58;;;;;;;15.07;41.19;98802.13;4477744;26;20576;-71
2024/04/26 08:38:27;;;;;;;5.65;2.78;;;;;;;14.75;41.64;98801.88;4477961;26;20004;-70
2024/04/26 08:40:28;;;;;;;;;;;;;;;14.89;41.00;98798.16;4477876;26;20471;-70
2024/04/26 08:42:28;;;;;;;6.27;2.87;;;;;;;15.07;41.34;98799.44;4477199;26;20265;-70
2024/04/26 08:44:30;;;;;;;7.50;2.95;;;;;;;14.39;42.38;98802.94;4445002;26;20444;-70
2024/04/26 08:46:32;;;;;;;9.48;2.97;;;;;;;14.09;43.23;98804.03;4476373;26;19999;-69
2024/04/26 08:48:36;;;;;;;6.50;2.85;;;;;;;14.04;43.21;98809.19;4477295;26;20007;-70
2024/04/26 08:50:37;;;;;;;8.38;3.47;;;;;;;13.98;43.85;98812.66;4477222;26;19999;-70
2024/04/26 08:52:39;;;;;;;7.47;2.58;;;;;;;14.03;43.72;98816.38;4477288;26;19995;-70
2024/04/26 08:54:40;;;;;;;7.35;2.85;;;;;;;14.19;43.08;98815.25;4476678;26;20428;-70
2024/04/26 08:56:41;;;;;;;6.40;2.70;;;;;;;14.03;43.86;98818.25;4476914;26;20000;-70
2024/04/26 08:58:46;;;;;;;5.97;2.65;;;;;;;14.17;43.57;98811.91;4475633;26;20006;-70
2024/04/26 09:00:47;;;;;;;7.57;3.47;;;;;;;14.40;43.55;98818.88;4477054;26;20004;-70
2024/04/26 09:02:48;;;;;;;6.20;2.50;;;;;;;14.59;42.79;98819.16;4446141;26;19992;-70
2024/04/26 09:04:50;;;;;;;5.55;2.55;;;;;;;14.23;43.17;98815.69;4475523;26;19992;-70
2024/04/26 09:06:50;;;;;;;6.40;3.03;;;;;;;14.54;42.87;98810.88;4476804;26;20007;-70
2024/04/26 09:08:50;;;;;;;7.85;2.67;;;;;;;14.73;42.49;98812.00;4476938;26;19996;-69
2024/04/26 09:10:52;;;;;;;8.38;3.42;;;;;;;14.61;42.85;98815.22;4476638;26;20350;-70
2024/04/26 09:12:52;;;;;;;5.85;2.65;;;;;;;14.57;42.65;98811.31;4476709;26;20006;-70
2024/04/26 09:14:53;;;;;;;6.57;2.67;;;;;;;14.71;42.42;98820.28;4475904;26;19991;-70
2024/04/26 09:16:53;;;;;;;8.05;3.13;;;;;;;15.41;41.42;98811.91;4475484;26;20002;-70
2024/04/26 09:18:54;;;;;;;6.38;2.85;;;;;;;16.04;40.21;98805.28;4477210;26;20008;-70
2024/04/26 09:20:54;;;;;;;;;;;;;;;15.93;39.59;98808.63;4477938;26;20028;-70
2024/04/26 09:22:55;;;;;;;6.28;2.40;;;;;;;16.37;39.46;98814.31;4446316;26;19926;-70
2024/04/26 09:24:55;;;;;;;;;;;;;;;16.69;38.85;98806.28;4477364;26;20002;-71
2024/04/26 09:26:56;;;;;;;4.63;2.55;;;;;;;16.88;39.31;98799.13;4477694;26;19925;-69
2024/04/26 09:28:56;;;;;;;;;;;;;;;16.89;38.58;98813.44;4478092;26;19999;-69
2024/04/26 09:30:56;;;;;;;5.37;2.10;;;;;;;17.30;38.82;98806.78;4476883;26;19941;-69
2024/04/26 09:32:57;;;;;;;;;;;;;;;17.11;38.07;98809.41;4446716;26;20011;-68